Archival Weather

Makurdi

Makurdi, Nigeria (DNMK)

Report from: Saturday, March 4, 2023 11:00 PM +10
Current time: Friday, July 19, 2024 12:10 AM +10

Current weather – Weather history – Daily summaries
Weather forecast

Temperature37.0°C (98.6°F)
Heat index43.3°C (109.9°F)
Dew point23.0°C (73.4°F)
Winds 9 kts (4.6 m/s, 10.4 mph) West-Southwest (250°)
Visibility6.2 mi. (10 km)
Clouds Scattered clouds 1,300 ft. (396 m)
Altimeter29.71 in.Hg (1006 mB)
Relative humidity45 %
Density altitude3,105 ft. (946 m)
Flight conditions Visual Meteorological Conditions
Raw dataDNMK 041300Z 25009KT 9999 SCT013 37/23 Q1006
An error has occurred. This application may no longer respond until reloaded. Reload 🗙